Time;durP1;ratioP1;P1;durP2;ratioP2;P2;SDS_P1;SDS_P2;PMS_P1;PMS_P2;Temp;Humidity;BMP_temperature;BMP_pressure;BME280_temperature;BME280_humidity;BME280_pressure;Samples;Min_cycle;Max_cycle;Signal;HPM_P1;HPM_P2
2023/08/17 00:01:07;;;;;;;;;;;22.50;99.90;;;;;;5026909;28;19928;-70
2023/08/17 00:03:34;;;;;;;;;;;22.50;99.90;;;;;;5026421;28;19949;-70
2023/08/17 00:06:00;;;;;;;;;;;22.50;99.90;;;;;;5026398;28;19925;-70
2023/08/17 00:08:27;;;;;;;;;;;22.50;99.90;;;;;;5026424;28;19927;-69
2023/08/17 00:10:53;;;;;;;;;;;22.50;99.90;;;;;;5026717;28;19922;-70
2023/08/17 00:13:20;;;;;;;;;;;22.60;99.90;;;;;;5026374;28;20201;-70
2023/08/17 00:15:47;;;;;;;;;;;22.50;99.90;;;;;;5026603;28;19921;-70
2023/08/17 00:18:15;;;;;;;;;;;22.50;99.90;;;;;;5025821;28;19965;-70
2023/08/17 00:20:42;;;;;;;;;;;22.50;99.90;;;;;;5026662;28;19966;-70
2023/08/17 00:23:08;;;;;;;;;;;22.40;99.90;;;;;;5026619;28;19921;-70
2023/08/17 00:25:35;;;;;;;;;;;22.40;99.90;;;;;;5026120;28;19944;-70
2023/08/17 00:28:02;;;;;;;;;;;22.50;99.90;;;;;;5025862;28;19922;-70
2023/08/17 00:30:28;;;;;;;;;;;22.50;99.90;;;;;;5026419;28;19921;-70
2023/08/17 00:32:55;;;;;;;;;;;22.40;99.90;;;;;;5026076;28;19921;-70
2023/08/17 00:35:23;;;;;;;;;;;22.50;99.90;;;;;;5026051;28;19984;-70
2023/08/17 00:37:49;;;;;;;;;;;22.50;99.90;;;;;;5025786;28;20108;-70
2023/08/17 00:40:16;;;;;;;;;;;22.60;99.90;;;;;;5026087;28;19921;-70
2023/08/17 00:42:43;;;;;;;;;;;22.50;99.90;;;;;;5025733;28;20227;-70
2023/08/17 00:45:10;;;;;;;;;;;22.60;99.90;;;;;;5025512;28;19928;-70
2023/08/17 00:47:36;;;;;;;;;;;22.60;99.90;;;;;;5025429;28;19921;-70
2023/08/17 00:50:03;;;;;;;;;;;22.60;99.90;;;;;;5025552;28;19921;-70
2023/08/17 00:52:32;;;;;;;;;;;22.60;99.90;;;;;;5025856;28;20172;-70
2023/08/17 00:55:01;;;;;;;;;;;22.60;99.90;;;;;;5025806;28;19929;-70
2023/08/17 00:57:27;;;;;;;;;;;22.50;99.90;;;;;;5025312;28;19958;-70
2023/08/17 00:59:54;;;;;;;;;;;22.50;99.90;;;;;;5025398;28;19988;-70
2023/08/17 01:02:21;;;;;;;;;;;22.50;99.90;;;;;;5025743;28;19988;-70
2023/08/17 01:04:47;;;;;;;;;;;22.50;99.90;;;;;;5025127;28;20120;-70
2023/08/17 01:07:14;;;;;;;;;;;22.50;99.90;;;;;;5025190;28;19921;-70
2023/08/17 01:09:42;;;;;;;;;;;22.40;99.90;;;;;;5025247;28;19922;-70
2023/08/17 01:12:14;;;;;;;;;;;22.40;99.90;;;;;;5025562;28;20166;-71
2023/08/17 01:14:47;;;;;;;;;;;22.40;99.90;;;;;;5025199;28;19959;-70
2023/08/17 01:17:18;;;;;;;;;;;22.40;99.90;;;;;;5024915;28;19921;-70
2023/08/17 01:19:45;;;;;;;;;;;22.40;99.90;;;;;;5025013;28;19952;-70
2023/08/17 01:22:13;;;;;;;;;;;22.40;99.90;;;;;;5025208;28;19921;-69
2023/08/17 01:24:41;;;;;;;;;;;22.30;99.90;;;;;;5025026;28;19933;-70
2023/08/17 01:27:08;;;;;;;;;;;22.40;99.90;;;;;;5024826;28;19984;-70
2023/08/17 01:29:35;;;;;;;;;;;22.40;99.90;;;;;;5024763;28;19988;-71
2023/08/17 01:32:03;;;;;;;;;;;22.30;99.90;;;;;;5025210;28;19993;-70
2023/08/17 01:34:33;;;;;;;;;;;22.30;99.90;;;;;;5025137;28;19976;-70
2023/08/17 01:37:02;;;;;;;;;;;22.30;99.90;;;;;;5024297;28;19928;-71
2023/08/17 01:39:32;;;;;;;;;;;22.30;99.90;;;;;;5025073;28;20118;-70
2023/08/17 01:42:01;;;;;;;;;;;22.30;99.90;;;;;;5024692;28;20103;-70
2023/08/17 01:44:27;;;;;;;;;;;22.20;99.90;;;;;;5024619;28;19992;-70
2023/08/17 01:46:54;;;;;;;;;;;22.20;99.90;;;;;;5024506;28;19985;-70
2023/08/17 01:49:21;;;;;;;;;;;22.20;99.90;;;;;;5024857;28;19928;-70
2023/08/17 01:51:47;;;;;;;;;;;22.20;99.90;;;;;;5024808;28;19943;-70
2023/08/17 01:54:14;;;;;;;;;;;22.10;99.90;;;;;;5024412;28;19921;-70
2023/08/17 01:56:41;;;;;;;;;;;22.00;99.90;;;;;;5023783;28;19960;-70
2023/08/17 01:59:09;;;;;;;;;;;22.00;99.90;;;;;;5024634;28;19922;-70
2023/08/17 02:01:35;;;;;;;;;;;21.90;99.90;;;;;;5024771;28;19988;-70
2023/08/17 02:04:02;;;;;;;;;;;21.90;99.90;;;;;;5024781;28;19922;-70
2023/08/17 02:06:29;;;;;;;;;;;21.90;99.90;;;;;;5024394;28;19996;-70
2023/08/17 02:08:56;;;;;;;;;;;21.90;99.90;;;;;;5024519;28;19922;-70
2023/08/17 02:11:22;;;;;;;;;;;21.80;99.90;;;;;;5024471;28;19921;-70
2023/08/17 02:13:49;;;;;;;;;;;21.80;99.90;;;;;;5024117;28;19927;-70
2023/08/17 02:16:17;;;;;;;;;;;21.70;99.90;;;;;;5024112;28;19992;-71
2023/08/17 02:18:44;;;;;;;;;;;21.70;99.90;;;;;;5023716;28;19996;-70
2023/08/17 02:21:10;;;;;;;;;;;21.70;99.90;;;;;;5024462;28;19922;-71
2023/08/17 02:23:37;;;;;;;;;;;21.70;99.90;;;;;;5024357;28;20241;-70
2023/08/17 02:26:03;;;;;;;;;;;21.70;99.90;;;;;;5023755;28;19964;-70
2023/08/17 02:28:30;;;;;;;;;;;21.60;99.90;;;;;;5023986;28;19922;-70
2023/08/17 02:30:57;;;;;;;;;;;21.60;99.90;;;;;;5024090;28;19927;-70
2023/08/17 02:33:26;;;;;;;;;;;21.60;99.90;;;;;;5022790;28;19980;-70
2023/08/17 02:35:53;;;;;;;;;;;21.60;99.90;;;;;;5023744;28;19921;-70
2023/08/17 02:38:19;;;;;;;;;;;21.60;99.90;;;;;;5023663;28;20000;-70
2023/08/17 02:40:46;;;;;;;;;;;21.60;99.90;;;;;;5023908;28;20138;-69
2023/08/17 02:43:22;;;;;;;;;;;21.60;99.90;;;;;;5022607;28;19930;-70
2023/08/17 02:45:48;;;;;;;;;;;21.50;99.90;;;;;;5023676;28;19960;-70
2023/08/17 02:48:15;;;;;;;;;;;21.60;99.90;;;;;;5023565;28;19921;-70
2023/08/17 02:50:43;;;;;;;;;;;21.60;99.90;;;;;;5023873;28;19989;-70
2023/08/17 02:53:09;;;;;;;;;;;21.50;99.90;;;;;;5023696;28;19944;-70
2023/08/17 02:55:36;;;;;;;;;;;21.60;99.90;;;;;;5023797;28;19922;-70
2023/08/17 02:58:03;;;;;;;;;;;21.50;99.90;;;;;;5023461;28;19921;-70
2023/08/17 03:00:30;;;;;;;;;;;21.40;99.90;;;;;;5023794;28;19921;-70
2023/08/17 03:02:56;;;;;;;;;;;21.40;99.90;;;;;;5023535;28;19922;-70
2023/08/17 03:05:23;;;;;;;;;;;21.40;99.90;;;;;;5023755;28;19928;-70
2023/08/17 03:07:51;;;;;;;;;;;21.40;99.90;;;;;;5024427;28;19922;-70
2023/08/17 03:10:18;;;;;;;;;;;21.40;99.90;;;;;;5027446;28;20132;-70
2023/08/17 03:12:44;;;;;;;;;;;21.30;99.90;;;;;;5027812;28;19921;-70
2023/08/17 03:15:11;;;;;;;;;;;21.30;99.90;;;;;;5027636;28;20156;-70
2023/08/17 03:17:37;;;;;;;;;;;21.30;99.90;;;;;;5026842;28;20297;-70
2023/08/17 03:20:06;;;;;;;;;;;21.30;99.90;;;;;;5027560;28;19921;-70
2023/08/17 03:22:33;;;;;;;;;;;21.30;99.90;;;;;;5027589;28;19921;-70
2023/08/17 03:25:01;;;;;;;;;;;21.20;99.90;;;;;;5027289;28;19956;-70
2023/08/17 03:27:28;;;;;;;;;;;21.20;99.90;;;;;;5027249;28;19929;-70
2023/08/17 03:29:55;;;;;;;;;;;21.20;99.90;;;;;;5027198;28;19984;-70
2023/08/17 03:32:22;;;;;;;;;;;21.20;99.90;;;;;;5025938;28;19921;-70
2023/08/17 03:34:48;;;;;;;;;;;21.20;99.90;;;;;;5027393;28;19922;-70
2023/08/17 03:37:15;;;;;;;;;;;21.20;99.90;;;;;;5026906;28;19989;-71
2023/08/17 03:39:41;;;;;;;;;;;21.20;99.90;;;;;;5027052;28;20217;-70
2023/08/17 03:42:10;;;;;;;;;;;21.10;99.90;;;;;;5026027;28;19984;-71
2023/08/17 03:44:37;;;;;;;;;;;21.10;99.90;;;;;;5027275;28;19953;-70
2023/08/17 03:47:10;;;;;;;;;;;21.00;99.90;;;;;;5025788;28;19984;-70
2023/08/17 03:49:37;;;;;;;;;;;21.00;99.90;;;;;;5027239;28;19921;-70
2023/08/17 03:52:04;;;;;;;;;;;21.00;99.90;;;;;;5027252;28;19928;-73
2023/08/17 03:54:30;;;;;;;;;;;21.00;99.90;;;;;;5026828;28;19921;-70
2023/08/17 03:56:58;;;;;;;;;;;20.90;99.90;;;;;;5025495;28;19929;-70
2023/08/17 03:59:26;;;;;;;;;;;20.90;99.90;;;;;;5025452;28;19921;-70
2023/08/17 04:01:53;;;;;;;;;;;20.80;99.90;;;;;;5026947;28;19921;-70
2023/08/17 04:04:19;;;;;;;;;;;20.80;99.90;;;;;;5026607;28;20260;-70
2023/08/17 04:06:46;;;;;;;;;;;20.80;99.90;;;;;;5026317;28;19984;-70
2023/08/17 04:09:12;;;;;;;;;;;20.80;99.90;;;;;;5026817;28;20000;-70
2023/08/17 04:11:39;;;;;;;;;;;20.70;99.90;;;;;;5026579;28;19922;-70
2023/08/17 04:14:06;;;;;;;;;;;20.70;99.90;;;;;;5026440;28;20227;-71
2023/08/17 04:16:34;;;;;;;;;;;20.70;99.90;;;;;;5025969;28;20344;-70
2023/08/17 04:19:00;;;;;;;;;;;20.70;99.90;;;;;;5025847;28;20191;-70
2023/08/17 04:21:27;;;;;;;;;;;20.70;99.90;;;;;;5026492;28;19956;-70
2023/08/17 04:23:53;;;;;;;;;;;20.60;99.90;;;;;;5026457;28;19921;-70
2023/08/17 04:26:20;;;;;;;;;;;20.60;99.90;;;;;;5026062;28;19928;-70
2023/08/17 04:28:47;;;;;;;;;;;20.60;99.90;;;;;;5025827;28;20231;-70
2023/08/17 04:31:13;;;;;;;;;;;20.70;99.90;;;;;;5026444;28;19929;-70
2023/08/17 04:33:42;;;;;;;;;;;20.60;99.90;;;;;;5026245;28;19921;-70
2023/08/17 04:36:08;;;;;;;;;;;20.60;99.90;;;;;;5026177;28;19925;-70
2023/08/17 04:38:35;;;;;;;;;;;20.60;99.90;;;;;;5025152;28;20179;-70
2023/08/17 04:41:01;;;;;;;;;;;20.60;99.90;;;;;;5026120;28;19928;-70
2023/08/17 04:43:28;;;;;;;;;;;20.60;99.90;;;;;;5025851;28;19922;-70
2023/08/17 04:46:01;;;;;;;;;;;20.60;99.90;;;;;;5025120;28;19957;-70
2023/08/17 04:48:27;;;;;;;;;;;20.60;99.90;;;;;;5025548;28;19921;-70
2023/08/17 04:50:55;;;;;;;;;;;20.60;99.90;;;;;;5026009;28;19921;-70
2023/08/17 04:53:22;;;;;;;;;;;20.60;99.90;;;;;;5025805;28;19921;-69
2023/08/17 04:55:48;;;;;;;;;;;20.60;99.90;;;;;;5025180;28;19981;-71
2023/08/17 04:58:15;;;;;;;;;;;20.60;99.90;;;;;;5025241;28;20000;-70
2023/08/17 05:00:41;;;;;;;;;;;20.60;99.90;;;;;;5025975;28;19921;-70
2023/08/17 05:03:08;;;;;;;;;;;20.60;99.90;;;;;;5025684;28;19957;-70
2023/08/17 05:05:35;;;;;;;;;;;20.60;99.90;;;;;;5025310;28;19922;-69
2023/08/17 05:08:03;;;;;;;;;;;20.60;99.90;;;;;;5024930;28;19953;-69
2023/08/17 05:10:30;;;;;;;;;;;20.60;99.90;;;;;;5025597;28;19921;-70
2023/08/17 05:12:56;;;;;;;;;;;20.50;99.90;;;;;;5025286;28;20232;-69
2023/08/17 05:15:23;;;;;;;;;;;20.60;99.90;;;;;;5025529;28;19928;-69
2023/08/17 05:17:49;;;;;;;;;;;20.60;99.90;;;;;;5024802;28;19921;-69
2023/08/17 05:20:16;;;;;;;;;;;20.60;99.90;;;;;;5025532;28;20117;-69
2023/08/17 05:22:43;;;;;;;;;;;20.60;99.90;;;;;;5025415;28;19944;-69
2023/08/17 05:25:11;;;;;;;;;;;20.60;99.90;;;;;;5024992;28;19922;-70
2023/08/17 05:27:37;;;;;;;;;;;20.70;99.90;;;;;;5024701;28;20113;-69
2023/08/17 05:30:05;;;;;;;;;;;20.70;99.90;;;;;;5024371;28;19984;-70
2023/08/17 05:32:31;;;;;;;;;;;20.80;99.90;;;;;;5025287;28;19921;-70
2023/08/17 05:34:58;;;;;;;;;;;20.80;99.90;;;;;;5024605;28;20462;-70
2023/08/17 05:37:28;;;;;;;;;;;20.80;99.90;;;;;;5023295;28;19922;-70
2023/08/17 05:39:54;;;;;;;;;;;20.90;99.90;;;;;;5024702;28;19921;-70
2023/08/17 05:42:22;;;;;;;;;;;20.90;99.90;;;;;;5024621;28;19984;-70
2023/08/17 05:44:50;;;;;;;;;;;21.00;99.90;;;;;;5024341;28;19928;-70
2023/08/17 05:47:19;;;;;;;;;;;21.00;99.90;;;;;;5024588;28;19964;-70
2023/08/17 05:49:45;;;;;;;;;;;21.00;99.90;;;;;;5024979;28;19921;-70
2023/08/17 05:52:12;;;;;;;;;;;21.10;99.90;;;;;;5024791;28;19988;-70
2023/08/17 05:54:39;;;;;;;;;;;21.10;99.90;;;;;;5024707;28;19921;-70
2023/08/17 05:57:05;;;;;;;;;;;21.20;99.90;;;;;;5024318;28;19928;-69
2023/08/17 05:59:35;;;;;;;;;;;21.20;99.90;;;;;;5023301;28;20209;-70
2023/08/17 06:02:02;;;;;;;;;;;21.20;99.90;;;;;;5024761;28;19922;-70
2023/08/17 06:04:29;;;;;;;;;;;21.20;99.90;;;;;;5024637;28;20004;-70
2023/08/17 06:06:55;;;;;;;;;;;21.30;99.90;;;;;;5024157;28;19921;-69
2023/08/17 06:09:22;;;;;;;;;;;21.30;99.90;;;;;;5024577;28;19988;-70
2023/08/17 06:11:49;;;;;;;;;;;21.30;99.90;;;;;;5024524;28;19928;-70
2023/08/17 06:14:15;;;;;;;;;;;21.40;99.90;;;;;;5024190;28;20214;-69
2023/08/17 06:16:43;;;;;;;;;;;21.40;99.90;;;;;;5023915;28;19957;-70
2023/08/17 06:19:10;;;;;;;;;;;21.40;99.90;;;;;;5023960;28;19926;-70
2023/08/17 06:21:37;;;;;;;;;;;21.50;99.90;;;;;;5024348;28;19921;-70
2023/08/17 06:24:04;;;;;;;;;;;21.50;99.90;;;;;;5024406;28;19921;-70
2023/08/17 06:26:31;;;;;;;;;;;21.60;99.90;;;;;;5023491;28;19929;-69
2023/08/17 06:28:57;;;;;;;;;;;21.60;99.90;;;;;;5024016;28;20001;-70
2023/08/17 06:31:27;;;;;;;;;;;21.60;99.90;;;;;;5024302;28;19921;-68
2023/08/17 06:33:55;;;;;;;;;;;21.70;99.90;;;;;;5023786;28;19929;-70
2023/08/17 06:36:21;;;;;;;;;;;21.80;99.90;;;;;;5024136;28;20000;-70
2023/08/17 06:38:48;;;;;;;;;;;21.90;99.90;;;;;;5022367;28;19921;-70
2023/08/17 06:41:15;;;;;;;;;;;21.90;99.90;;;;;;5023933;28;19922;-70
2023/08/17 06:43:41;;;;;;;;;;;21.90;99.90;;;;;;5023903;28;19955;-70
2023/08/17 06:46:08;;;;;;;;;;;21.90;99.90;;;;;;5024017;28;19921;-70
2023/08/17 06:48:34;;;;;;;;;;;22.00;99.90;;;;;;5023543;28;19953;-70
2023/08/17 06:51:04;;;;;;;;;;;22.10;99.90;;;;;;5023710;28;20201;-69
2023/08/17 06:53:31;;;;;;;;;;;22.10;99.90;;;;;;5023807;28;19925;-70
2023/08/17 06:55:57;;;;;;;;;;;22.20;99.90;;;;;;5023987;28;20012;-70
2023/08/17 06:58:24;;;;;;;;;;;22.20;99.90;;;;;;5023326;28;19921;-70
2023/08/17 07:00:51;;;;;;;;;;;22.20;99.90;;;;;;5023829;28;19928;-70
2023/08/17 07:03:17;;;;;;;;;;;22.20;99.90;;;;;;5023777;28;19921;-70
2023/08/17 07:05:44;;;;;;;;;;;22.30;99.90;;;;;;5023639;28;20117;-70
2023/08/17 07:08:13;;;;;;;;;;;22.30;99.90;;;;;;5023333;28;19925;-70
2023/08/17 07:10:39;;;;;;;;;;;22.40;99.90;;;;;;5023691;28;19956;-70
2023/08/17 07:13:06;;;;;;;;;;;22.40;99.90;;;;;;5023428;28;20205;-70
2023/08/17 07:15:33;;;;;;;;;;;22.50;99.90;;;;;;5023405;28;19993;-70
2023/08/17 07:17:59;;;;;;;;;;;22.60;99.90;;;;;;5023300;28;19956;-70
2023/08/17 07:20:26;;;;;;;;;;;22.70;99.90;;;;;;5023587;28;19928;-70
2023/08/17 07:22:52;;;;;;;;;;;22.70;99.90;;;;;;5023287;28;19996;-70
2023/08/17 07:25:20;;;;;;;;;;;22.90;99.90;;;;;;5023263;28;19984;-70
2023/08/17 07:27:47;;;;;;;;;;;23.00;99.90;;;;;;5022943;28;19921;-70
2023/08/17 07:30:14;;;;;;;;;;;23.10;99.90;;;;;;5023511;28;19992;-70
2023/08/17 07:32:40;;;;;;;;;;;23.30;99.90;;;;;;5023202;28;19952;-70
2023/08/17 07:35:06;;;;;;;;;;;23.40;99.90;;;;;;5023398;28;19922;-70
2023/08/17 07:37:33;;;;;;;;;;;23.60;99.90;;;;;;5023236;28;19921;-70
2023/08/17 07:40:05;;;;;;;;;;;23.70;99.90;;;;;;5022166;28;19921;-70
2023/08/17 07:42:33;;;;;;;;;;;23.70;99.90;;;;;;5023161;28;19988;-70
2023/08/17 07:45:01;;;;;;;;;;;23.80;99.90;;;;;;5022715;28;19930;-69
2023/08/17 07:47:27;;;;;;;;;;;23.90;99.90;;;;;;5023054;28;20137;-70
2023/08/17 07:49:54;;;;;;;;;;;24.00;99.90;;;;;;5023318;28;19931;-70
2023/08/17 07:52:20;;;;;;;;;;;24.10;99.90;;;;;;5023102;28;20366;-70
2023/08/17 07:54:47;;;;;;;;;;;24.20;99.90;;;;;;5025819;28;19959;-70
2023/08/17 07:57:14;;;;;;;;;;;24.30;99.90;;;;;;5026614;28;19921;-70
2023/08/17 07:59:47;;;;;;;;;;;24.40;99.90;;;;;;5025354;28;19928;-70
2023/08/17 08:02:13;;;;;;;;;;;24.40;99.90;;;;;;5026891;28;19922;-70
2023/08/17 08:04:40;;;;;;;;;;;24.50;99.90;;;;;;5026665;28;19922;-70
2023/08/17 08:07:07;;;;;;;;;;;24.60;99.90;;;;;;5025974;28;20112;-69
2023/08/17 08:09:33;;;;;;;;;;;24.60;99.90;;;;;;5026804;28;19993;-70
2023/08/17 08:12:00;;;;;;;;;;;24.80;99.90;;;;;;5026341;28;19922;-70
2023/08/17 08:14:26;;;;;;;;;;;24.80;99.90;;;;;;5026679;28;19923;-70
2023/08/17 08:16:54;;;;;;;;;;;24.80;99.90;;;;;;5026038;28;19989;-70
2023/08/17 08:19:21;;;;;;;;;;;24.80;99.90;;;;;;5026151;28;20045;-70
2023/08/17 08:21:48;;;;;;;;;;;24.80;99.90;;;;;;5026480;28;19928;-70
2023/08/17 08:24:14;;;;;;;;;;;24.80;99.90;;;;;;5026542;28;19928;-70
2023/08/17 08:26:41;;;;;;;;;;;24.90;99.90;;;;;;5025677;28;19927;-70
2023/08/17 08:29:08;;;;;;;;;;;24.90;99.90;;;;;;5026337;28;19944;-70
2023/08/17 08:31:34;;;;;;;;;;;25.00;99.90;;;;;;5025926;28;19988;-71
2023/08/17 08:34:02;;;;;;;;;;;25.00;99.90;;;;;;5026291;28;19922;-70
2023/08/17 08:36:29;;;;;;;;;;;25.10;99.90;;;;;;5026023;28;20160;-70
2023/08/17 08:38:55;;;;;;;;;;;25.00;99.90;;;;;;5024653;28;19921;-70
2023/08/17 08:41:22;;;;;;;;;;;25.00;99.90;;;;;;5026181;28;19922;-70
2023/08/17 08:43:49;;;;;;;;;;;25.10;99.90;;;;;;5025575;28;19921;-70
2023/08/17 08:46:17;;;;;;;;;;;25.10;99.90;;;;;;5025882;28;19937;-68
2023/08/17 08:48:45;;;;;;;;;;;25.20;99.90;;;;;;5025241;28;20275;-70
2023/08/17 08:51:17;;;;;;;;;;;25.20;99.90;;;;;;5025545;28;19984;-70
2023/08/17 08:53:45;;;;;;;;;;;25.30;99.90;;;;;;5025861;28;19928;-68
2023/08/17 08:56:13;;;;;;;;;;;25.30;99.90;;;;;;5025618;28;19921;-69
2023/08/17 08:58:40;;;;;;;;;;;25.30;99.90;;;;;;5025375;28;20214;-70
2023/08/17 09:01:07;;;;;;;;;;;25.30;99.90;;;;;;5025284;28;19928;-70
2023/08/17 09:03:34;;;;;;;;;;;25.40;99.90;;;;;;5025396;28;19928;-70
2023/08/17 09:06:01;;;;;;;;;;;25.50;99.90;;;;;;5025418;28;19927;-70
2023/08/17 09:08:30;;;;;;;;;;;25.50;99.90;;;;;;5025206;28;19932;-69
2023/08/17 09:10:57;;;;;;;;;;;25.60;99.90;;;;;;5025225;28;19989;-70
2023/08/17 09:13:23;;;;;;;;;;;25.60;99.90;;;;;;5025542;28;19922;-70
2023/08/17 09:15:50;;;;;;;;;;;25.70;99.90;;;;;;5024962;28;19921;-71
2023/08/17 09:18:16;;;;;;;;;;;25.80;99.90;;;;;;5024724;28;19928;-70
2023/08/17 09:20:45;;;;;;;;;;;25.90;99.90;;;;;;5025174;28;19985;-70
2023/08/17 09:23:12;;;;;;;;;;;26.00;99.90;;;;;;5025272;28;19929;-70
2023/08/17 09:25:41;;;;;;;;;;;26.00;99.90;;;;;;5024839;28;19980;-69
2023/08/17 09:28:09;;;;;;;;;;;26.10;99.90;;;;;;5024762;28;19928;-70
2023/08/17 09:30:49;;;;;;;;;;;26.20;99.90;;;;;;5025146;28;20109;-70
2023/08/17 09:33:25;;;;;;;;;;;26.30;99.90;;;;;;5024903;28;19922;-70
2023/08/17 09:35:52;;;;;;;;;;;26.40;99.90;;;;;;5024566;28;19990;-70
2023/08/17 09:38:19;;;;;;;;;;;26.40;99.90;;;;;;5024592;28;19984;-69
2023/08/17 09:40:47;;;;;;;;;;;26.60;99.90;;;;;;5024860;28;19921;-70
2023/08/17 09:43:14;;;;;;;;;;;26.70;99.90;;;;;;5024975;28;19929;-70
2023/08/17 09:45:41;;;;;;;;;;;26.70;99.90;;;;;;5024788;28;19989;-70
2023/08/17 09:48:08;;;;;;;;;;;26.80;99.90;;;;;;5024428;28;19944;-70
2023/08/17 09:50:35;;;;;;;;;;;26.90;99.90;;;;;;5024856;28;19972;-70
2023/08/17 09:53:08;;;;;;;;;;;26.90;99.90;;;;;;5024949;28;19921;-70
2023/08/17 09:55:35;;;;;;;;;;;26.90;99.90;;;;;;5024767;28;19921;-70
2023/08/17 09:58:04;;;;;;;;;;;27.10;99.90;;;;;;5021746;28;19964;-70
2023/08/17 10:00:31;;;;;;;;;;;27.10;99.90;;;;;;5024293;28;19984;-70
2023/08/17 10:02:59;;;;;;;;;;;27.10;99.90;;;;;;5024842;28;19921;-70
2023/08/17 10:05:29;;;;;;;;;;;27.20;99.90;;;;;;5023867;28;20283;-70
2023/08/17 10:07:58;;;;;;;;;;;27.30;99.90;;;;;;5021284;28;19936;-70
2023/08/17 10:10:27;;;;;;;;;;;27.50;99.90;;;;;;5023742;28;19984;-71
2023/08/17 10:12:56;;;;;;;;;;;27.60;99.90;;;;;;5024638;28;19984;-70
2023/08/17 10:15:26;;;;;;;;;;;27.60;99.90;;;;;;5024046;28;20252;-70
2023/08/17 10:17:56;;;;;;;;;;;27.70;99.90;;;;;;5023476;28;19992;-71
2023/08/17 10:20:24;;;;;;;;;;;27.80;99.90;;;;;;5022587;28;19928;-70
2023/08/17 10:22:53;;;;;;;;;;;27.90;99.90;;;;;;5024197;28;19928;-71
2023/08/17 10:25:20;;;;;;;;;;;28.00;99.90;;;;;;5021681;28;19921;-70
2023/08/17 10:27:51;;;;;;;;;;;28.10;99.90;;;;;;5023709;28;19922;-71
2023/08/17 10:30:20;;;;;;;;;;;28.30;99.90;;;;;;5023996;28;19921;-70
2023/08/17 10:32:48;;;;;;;;;;;28.40;99.90;;;;;;5024309;28;19960;-71
2023/08/17 10:35:26;;;;;;;;;;;28.40;99.90;;;;;;5021616;28;19921;-71
2023/08/17 10:37:53;;;;;;;;;;;28.60;99.90;;;;;;5023744;28;19921;-71
2023/08/17 10:40:26;;;;;;;;;;;28.70;99.90;;;;;;5023716;28;19927;-71
2023/08/17 10:42:54;;;;;;;;;;;28.80;99.90;;;;;;5024218;28;20008;-72
2023/08/17 10:45:28;;;;;;;;;;;28.90;99.90;;;;;;5023915;28;19921;-71
2023/08/17 10:48:22;;;;;;;;;;;28.90;99.90;;;;;;5023395;28;19922;-71
2023/08/17 10:53:54;;;;;;;;;;;29.10;99.90;;;;;;5005265;28;19917;-71
2023/08/17 10:56:28;;;;;;;;;;;29.20;99.90;;;;;;5023906;28;19993;-71
2023/08/17 10:58:55;;;;;;;;;;;29.30;99.90;;;;;;5023367;28;19921;-71
2023/08/17 11:01:32;;;;;;;;;;;29.40;99.90;;;;;;5023981;28;20121;-70
2023/08/17 11:04:11;;;;;;;;;;;29.50;99.90;;;;;;5024101;28;19921;-71
2023/08/17 11:06:38;;;;;;;;;;;29.60;99.90;;;;;;5023450;28;19944;-71
2023/08/17 11:09:07;;;;;;;;;;;29.70;99.90;;;;;;5023859;28;19921;-71
2023/08/17 11:11:34;;;;;;;;;;;29.80;99.90;;;;;;5023556;28;20228;-71
2023/08/17 11:14:00;;;;;;;;;;;29.90;99.90;;;;;;5023754;28;19984;-70
2023/08/17 11:16:27;;;;;;;;;;;29.90;99.90;;;;;;5023730;28;19981;-71
2023/08/17 11:18:56;;;;;;;;;;;29.80;99.90;;;;;;5023159;28;19988;-71
2023/08/17 11:21:24;;;;;;;;;;;29.70;99.90;;;;;;5023640;28;19928;-71
2023/08/17 11:23:51;;;;;;;;;;;29.70;99.90;;;;;;5023558;28;19928;-71
2023/08/17 11:26:18;;;;;;;;;;;29.60;99.90;;;;;;5023372;28;19921;-71
2023/08/17 11:28:45;;;;;;;;;;;29.60;99.90;;;;;;5023860;28;19984;-71
2023/08/17 11:31:12;;;;;;;;;;;29.70;99.90;;;;;;5027252;28;20227;-70
2023/08/17 11:33:41;;;;;;;;;;;29.70;99.90;;;;;;5025145;28;19971;-71
2023/08/17 11:36:08;;;;;;;;;;;29.70;99.90;;;;;;5027403;28;19992;-70
2023/08/17 11:38:43;;;;;;;;;;;29.80;99.90;;;;;;5024265;28;19929;-71
2023/08/17 11:41:10;;;;;;;;;;;30.00;99.90;;;;;;5027054;28;19971;-71
2023/08/17 11:43:37;;;;;;;;;;;30.00;99.90;;;;;;5027446;28;19989;-71
2023/08/17 11:46:04;;;;;;;;;;;30.10;99.90;;;;;;5027310;28;20039;-71
2023/08/17 11:48:31;;;;;;;;;;;30.30;99.90;;;;;;5026739;28;19989;-71
2023/08/17 11:50:58;;;;;;;;;;;30.40;99.90;;;;;;5027451;28;20109;-71
2023/08/17 11:53:24;;;;;;;;;;;30.50;99.90;;;;;;5027163;28;19984;-71
2023/08/17 11:55:52;;;;;;;;;;;30.50;99.90;;;;;;5026618;28;19927;-71
2023/08/17 11:58:19;;;;;;;;;;;30.60;99.90;;;;;;5026576;28;19928;-70
2023/08/17 12:00:45;;;;;;;;;;;30.60;99.90;;;;;;5027039;28;20116;-71
2023/08/17 12:03:16;;;;;;;;;;;30.60;99.90;;;;;;5026816;28;19921;-71
2023/08/17 12:05:43;;;;;;;;;;;30.60;99.90;;;;;;5026919;28;19967;-71
2023/08/17 12:08:09;;;;;;;;;;;30.70;99.90;;;;;;5026350;28;19927;-71
2023/08/17 12:10:37;;;;;;;;;;;30.90;99.90;;;;;;5026574;28;19921;-71
2023/08/17 12:13:06;;;;;;;;;;;31.10;99.90;;;;;;5026494;28;19985;-71
2023/08/17 12:15:33;;;;;;;;;;;31.20;99.90;;;;;;5026299;28;20231;-71
2023/08/17 12:18:00;;;;;;;;;;;31.50;99.90;;;;;;5026203;28;19956;-70
2023/08/17 12:20:27;;;;;;;;;;;31.60;99.90;;;;;;5026754;28;19921;-71
2023/08/17 12:22:53;;;;;;;;;;;31.70;99.90;;;;;;5026399;28;19928;-71
2023/08/17 12:25:21;;;;;;;;;;;31.70;99.90;;;;;;5026326;28;19921;-71
2023/08/17 12:27:48;;;;;;;;;;;31.70;99.90;;;;;;5025960;28;19953;-71
2023/08/17 12:30:26;;;;;;;;;;;31.90;99.90;;;;;;5026545;28;19929;-71
2023/08/17 12:32:52;;;;;;;;;;;32.10;99.90;;;;;;5026605;28;19921;-71
2023/08/17 12:35:24;;;;;;;;;;;32.30;99.90;;;;;;5023717;28;20098;-71
2023/08/17 12:37:51;;;;;;;;;;;32.40;99.90;;;;;;5025567;28;19921;-72
2023/08/17 12:40:22;;;;;;;;;;;32.40;99.90;;;;;;5023325;28;19921;-71
2023/08/17 12:42:49;;;;;;;;;;;32.40;99.90;;;;;;5026384;28;19984;-71
2023/08/17 12:45:17;;;;;;;;;;;32.40;99.90;;;;;;5026143;28;19928;-71
2023/08/17 12:47:44;;;;;;;;;;;32.30;99.90;;;;;;5025582;28;19927;-70
2023/08/17 12:50:10;;;;;;;;;;;32.30;99.90;;;;;;5025934;28;19984;-71
2023/08/17 12:52:37;;;;;;;;;;;32.20;99.90;;;;;;5026124;28;19984;-71
2023/08/17 12:55:04;;;;;;;;;;;32.00;99.90;;;;;;5025894;28;20117;-71
2023/08/17 12:57:30;;;;;;;;;;;31.90;99.90;;;;;;5025376;28;19921;-71
2023/08/17 12:59:57;;;;;;;;;;;31.90;99.90;;;;;;5025735;28;20210;-71
2023/08/17 13:02:25;;;;;;;;;;;31.80;99.90;;;;;;5025720;28;20201;-71
2023/08/17 13:04:52;;;;;;;;;;;31.60;99.90;;;;;;5025747;28;19989;-71
2023/08/17 13:07:18;;;;;;;;;;;31.40;99.90;;;;;;5025269;28;19921;-71
2023/08/17 13:09:46;;;;;;;;;;;31.30;99.90;;;;;;5025638;28;20164;-71
2023/08/17 13:12:13;;;;;;;;;;;31.20;99.90;;;;;;5025768;28;19943;-72
2023/08/17 13:14:39;;;;;;;;;;;31.10;99.90;;;;;;5025578;28;19921;-70
2023/08/17 13:17:06;;;;;;;;;;;30.90;99.90;;;;;;5024863;28;19921;-71
2023/08/17 13:19:34;;;;;;;;;;;30.80;99.90;;;;;;5025281;28;20209;-71
2023/08/17 13:22:02;;;;;;;;;;;30.80;99.90;;;;;;5025414;28;19984;-70
2023/08/17 13:24:29;;;;;;;;;;;30.70;99.90;;;;;;5025431;28;19922;-70
2023/08/17 13:26:57;;;;;;;;;;;30.60;99.90;;;;;;5024668;28;19921;-70
2023/08/17 13:29:23;;;;;;;;;;;30.60;99.90;;;;;;5025323;28;19922;-70
2023/08/17 13:31:50;;;;;;;;;;;30.50;99.90;;;;;;5025447;28;20116;-71
2023/08/17 13:34:24;;;;;;;;;;;30.50;99.90;;;;;;5022777;28;19973;-69
2023/08/17 13:36:53;;;;;;;;;;;30.40;99.90;;;;;;5024511;28;19984;-69
2023/08/17 13:39:29;;;;;;;;;;;30.40;99.90;;;;;;5022473;28;19928;-70
2023/08/17 13:41:56;;;;;;;;;;;30.40;99.90;;;;;;5025092;28;19989;-70
2023/08/17 13:44:22;;;;;;;;;;;30.30;99.90;;;;;;5025006;28;20120;-70
2023/08/17 13:46:49;;;;;;;;;;;30.30;99.90;;;;;;5024099;28;20020;-70
2023/08/17 13:49:16;;;;;;;;;;;30.20;99.90;;;;;;5024755;28;20209;-71
2023/08/17 13:51:42;;;;;;;;;;;30.20;99.90;;;;;;5023784;28;20209;-69
2023/08/17 13:54:10;;;;;;;;;;;30.20;99.90;;;;;;5024960;28;19927;-70
2023/08/17 13:56:37;;;;;;;;;;;30.20;99.90;;;;;;5024360;28;19984;-69
2023/08/17 13:59:04;;;;;;;;;;;30.40;99.90;;;;;;5024672;28;19928;-70
2023/08/17 14:01:30;;;;;;;;;;;30.50;99.90;;;;;;5024733;28;19922;-70
2023/08/17 14:03:57;;;;;;;;;;;30.40;99.90;;;;;;5024423;28;19928;-69
2023/08/17 14:06:23;;;;;;;;;;;30.10;99.90;;;;;;5024024;28;19921;-70
2023/08/17 14:08:51;;;;;;;;;;;29.40;99.90;;;;;;5023869;28;19985;-69
2023/08/17 14:11:19;;;;;;;;;;;28.90;99.90;;;;;;5024594;28;19945;-70
2023/08/17 14:13:45;;;;;;;;;;;28.50;99.90;;;;;;5024507;28;19921;-70
2023/08/17 14:16:12;;;;;;;;;;;28.30;99.90;;;;;;5024191;28;19989;-70
2023/08/17 14:18:39;;;;;;;;;;;28.20;99.90;;;;;;5022761;28;19922;-71
2023/08/17 14:21:05;;;;;;;;;;;28.10;99.90;;;;;;5023973;28;19937;-70